< < Back
Terminal Aerodrome Forecast


Current Version              Previous Versions:   1  2  3  4  5  6  7  8  9  

Terminal Aerodrome Forecast

372
FTUS42 KGSP 161300 AAC
TAFHKY
TAF AMD
KHKY 161310Z 1613/1712 VRB03KT 3SM BR SCT002 BKN120
      TEMPO 1613/1614 1SM BR BKN002
     FM161400 28003KT P6SM SCT015 BKN025
     FM161500 30004KT P6SM SCT030
     FM162000 24004KT P6SM VCTS BKN040CB PROB30 1622/1702 4SM TSRA
      BKN040CB
     FM170300 34003KT P6SM BKN250
     FM170600 00000KT 5SM BR BKN040=

Latest METAR

379
SAUS70 KWBC 161900 RRE
MTRHKY
METAR KHKY 161853Z AUTO 19006KT 10SM SCT037 SCT049 OVC065 28/19 A3000
RMK AO2 SLP137 T02780194


USA.gov is the U.S. government's official web portal to all federal, state and local government web resources and services.